Time;durP1;ratioP1;P1;durP2;ratioP2;P2;SDS_P1;SDS_P2;PMS_P1;PMS_P2;Temp;Humidity;BMP_temperature;BMP_pressure;BME280_temperature;BME280_humidity;BME280_pressure;Samples;Min_cycle;Max_cycle;Signal;HPM_P1;HPM_P2
2022/01/10 00:02:12;;;;;;;35.53;14.53;;;2.20;99.90;;;;;;7343902;19;112259;-77
2022/01/10 00:04:39;;;;;;;40.43;14.80;;;2.20;99.90;;;;;;7339653;19;112927;-77
2022/01/10 00:07:07;;;;;;;31.37;12.93;;;2.20;99.90;;;;;;7342493;19;113019;-77
2022/01/10 00:09:34;;;;;;;31.67;12.63;;;2.10;99.90;;;;;;7341997;19;112870;-77
2022/01/10 00:12:01;;;;;;;29.00;11.97;;;2.10;99.90;;;;;;7341606;19;112278;-77
2022/01/10 00:14:34;;;;;;;34.53;13.53;;;2.10;99.90;;;;;;7345478;19;112506;-77
2022/01/10 00:17:01;;;;;;;28.50;12.70;;;2.20;99.90;;;;;;7342798;19;112737;-77
2022/01/10 00:19:28;;;;;;;34.87;12.77;;;2.20;99.90;;;;;;7343498;19;112550;-78
2022/01/10 00:21:55;;;;;;;35.30;14.27;;;2.10;99.90;;;;;;7339791;19;112153;-77
2022/01/10 00:24:22;;;;;;;36.43;13.80;;;2.00;99.90;;;;;;7343076;19;112361;-77
2022/01/10 00:26:50;;;;;;;29.80;12.13;;;1.90;99.90;;;;;;7338511;19;112074;-77
2022/01/10 00:29:17;;;;;;;31.77;13.00;;;1.80;99.90;;;;;;7343356;19;112171;-78
2022/01/10 00:31:44;;;;;;;33.40;13.10;;;1.80;99.90;;;;;;7339094;19;112236;-77
2022/01/10 00:34:11;;;;;;;28.53;11.87;;;1.80;99.90;;;;;;7348109;19;111958;-77
2022/01/10 00:36:38;;;;;;;32.43;12.93;;;1.90;99.90;;;;;;7340597;19;112720;-77
2022/01/10 00:39:05;;;;;;;32.87;14.33;;;1.90;99.90;;;;;;7340452;19;112398;-77
2022/01/10 00:41:32;;;;;;;31.90;12.43;;;1.90;99.90;;;;;;7341902;19;112044;-77
2022/01/10 00:44:01;;;;;;;28.83;13.03;;;1.80;99.90;;;;;;7338370;19;112381;-78
2022/01/10 00:46:28;;;;;;;29.13;11.17;;;1.90;99.90;;;;;;7342814;19;111518;-77
2022/01/10 00:48:55;;;;;;;36.10;13.00;;;1.90;99.90;;;;;;7339530;19;112323;-78
2022/01/10 00:51:23;;;;;;;26.30;12.53;;;1.90;99.90;;;;;;7342359;19;113728;-76
2022/01/10 00:53:52;;;;;;;34.80;11.70;;;2.00;99.90;;;;;;7340171;19;113040;-77
2022/01/10 00:56:19;;;;;;;27.73;12.87;;;2.00;99.90;;;;;;7344722;19;112237;-77
2022/01/10 00:58:47;;;;;;;30.33;12.67;;;2.00;99.90;;;;;;7340071;19;112106;-77
2022/01/10 01:01:16;;;;;;;30.87;12.20;;;1.90;99.90;;;;;;7340585;19;111952;-77
2022/01/10 01:03:44;;;;;;;30.83;12.93;;;2.00;99.90;;;;;;7341909;19;110664;-77
2022/01/10 01:06:13;;;;;;;26.87;12.37;;;2.00;99.90;;;;;;7338949;19;112250;-77
2022/01/10 01:08:41;;;;;;;30.50;11.63;;;2.00;99.90;;;;;;7341920;19;112303;-77
2022/01/10 01:13:53;;;;;;;28.27;11.70;;;2.00;99.90;;;;;;7341660;19;111801;-77
2022/01/10 01:24:20;;;;;;;32.67;12.87;;;1.90;99.90;;;;;;7337418;19;115397;-77
2022/01/10 01:26:49;;;;;;;34.50;13.23;;;1.90;99.90;;;;;;7338474;19;111712;-78
2022/01/10 01:29:19;;;;;;;28.83;12.13;;;1.90;99.90;;;;;;7339384;19;115621;-78
2022/01/10 01:31:46;;;;;;;30.73;11.93;;;1.90;99.90;;;;;;7340256;19;110873;-77
2022/01/10 01:34:15;;;;;;;35.10;13.70;;;1.90;99.90;;;;;;7336721;19;111918;-77
2022/01/10 01:36:46;;;;;;;25.10;11.90;;;1.90;99.90;;;;;;7339441;19;112587;-77
2022/01/10 01:39:21;;;;;;;36.60;13.53;;;1.90;99.90;;;;;;7341777;19;111373;-78
2022/01/10 01:41:53;;;;;;;44.63;15.70;;;1.80;99.90;;;;;;7344952;19;112241;-78
2022/01/10 01:44:21;;;;;;;36.93;14.40;;;1.70;99.90;;;;;;7339443;19;112649;-78
2022/01/10 01:46:48;;;;;;;40.37;13.83;;;1.60;99.90;;;;;;7336924;19;112144;-77
2022/01/10 01:49:15;;;;;;;31.87;13.73;;;1.50;99.90;;;;;;7339650;19;112228;-77
2022/01/10 01:51:43;;;;;;;49.17;16.73;;;1.50;99.90;;;;;;7340804;19;113559;-77
2022/01/10 01:54:10;;;;;;;34.43;13.60;;;1.50;99.90;;;;;;7337170;19;112133;-78
2022/01/10 01:56:38;;;;;;;36.93;14.83;;;1.60;99.90;;;;;;7342009;19;111805;-78
2022/01/10 01:59:09;;;;;;;38.20;15.50;;;1.60;99.90;;;;;;7337198;19;113051;-77
2022/01/10 02:01:36;;;;;;;35.33;14.13;;;1.60;99.90;;;;;;7341291;19;114013;-77
2022/01/10 02:04:04;;;;;;;25.90;11.77;;;1.50;99.90;;;;;;7342231;19;112063;-77
2022/01/10 02:06:31;;;;;;;30.40;13.43;;;1.50;99.90;;;;;;7337301;19;110684;-76
2022/01/10 02:08:58;;;;;;;35.60;12.63;;;1.50;99.90;;;;;;7339060;19;113175;-77
2022/01/10 02:11:25;;;;;;;26.50;12.33;;;1.50;99.90;;;;;;7337186;19;112425;-78
2022/01/10 02:13:52;;;;;;;24.37;11.13;;;1.60;99.90;;;;;;7339724;19;112424;-77
2022/01/10 02:16:32;;;;;;;26.00;12.03;;;1.60;99.90;;;;;;7335377;19;111975;-77
2022/01/10 02:18:59;;;;;;;30.20;12.60;;;1.60;99.90;;;;;;7340897;19;112480;-77
2022/01/10 02:21:26;;;;;;;30.87;12.43;;;1.50;99.90;;;;;;7337442;19;112095;-77
2022/01/10 02:23:54;;;;;;;32.87;12.87;;;1.60;99.90;;;;;;7340125;19;112216;-77
2022/01/10 02:26:21;;;;;;;28.17;12.67;;;1.60;99.90;;;;;;7341847;19;112503;-78
2022/01/10 02:28:48;;;;;;;33.80;12.67;;;1.60;99.90;;;;;;7335697;19;113894;-78
2022/01/10 02:31:16;;;;;;;28.73;12.37;;;1.50;99.90;;;;;;7337055;19;112495;-77
2022/01/10 02:33:43;;;;;;;34.77;13.20;;;1.50;99.90;;;;;;7337365;19;111418;-77
2022/01/10 02:38:56;;;;;;;31.40;12.33;;;1.60;99.90;;;;;;7336880;19;113850;-77
2022/01/10 02:41:28;;;;;;;35.47;12.50;;;1.60;99.90;;;;;;7340252;19;111724;-78
2022/01/10 02:43:57;;;;;;;31.67;13.10;;;1.60;99.90;;;;;;7335265;19;112823;-78
2022/01/10 02:46:24;;;;;;;52.60;17.87;;;1.50;99.90;;;;;;7345010;19;112852;-77
2022/01/10 02:48:52;;;;;;;32.67;12.93;;;1.50;99.90;;;;;;7336326;19;112802;-78
2022/01/10 02:51:19;;;;;;;34.60;14.70;;;1.50;99.90;;;;;;7338092;19;111852;-78
2022/01/10 02:53:46;;;;;;;38.07;12.87;;;1.40;99.90;;;;;;7338483;19;110495;-77
2022/01/10 02:56:13;;;;;;;34.30;12.53;;;1.40;99.90;;;;;;7335157;19;113924;-78
2022/01/10 02:58:40;;;;;;;30.60;12.07;;;1.40;99.90;;;;;;7338271;19;112372;-77
2022/01/10 03:01:08;;;;;;;31.00;12.47;;;1.40;99.90;;;;;;7335631;19;112085;-78
2022/01/10 03:03:35;;;;;;;33.23;12.57;;;1.40;99.90;;;;;;7339364;19;112027;-77
2022/01/10 03:06:02;;;;;;;34.97;13.47;;;1.40;99.90;;;;;;7335513;19;112640;-78
2022/01/10 03:08:31;;;;;;;29.33;13.10;;;1.40;99.90;;;;;;7342630;19;112113;-78
2022/01/10 03:10:58;;;;;;;28.50;12.10;;;1.40;99.90;;;;;;7336069;19;112839;-77
2022/01/10 03:13:25;;;;;;;32.87;12.83;;;1.40;99.90;;;;;;7336234;19;111966;-77
2022/01/10 03:15:52;;;;;;;39.23;13.73;;;1.40;99.90;;;;;;7337132;19;112251;-78
2022/01/10 03:18:19;;;;;;;40.07;14.97;;;1.40;99.90;;;;;;7334155;19;112790;-77
2022/01/10 03:20:46;;;;;;;35.13;12.43;;;1.20;99.90;;;;;;7339029;19;111025;-77
2022/01/10 03:23:13;;;;;;;38.57;14.07;;;1.20;99.90;;;;;;7335671;19;112524;-77
2022/01/10 03:25:40;;;;;;;36.77;14.60;;;1.10;99.90;;;;;;7335759;19;113943;-77
2022/01/10 03:28:10;;;;;;;44.03;15.87;;;1.10;99.90;;;;;;7334637;19;112118;-78
2022/01/10 03:30:37;;;;;;;39.10;13.10;;;1.10;99.90;;;;;;7343170;19;111803;-77
2022/01/10 03:33:04;;;;;;;40.87;13.77;;;1.10;99.90;;;;;;7333857;19;112195;-78
2022/01/10 03:35:31;;;;;;;48.07;16.53;;;1.10;99.90;;;;;;7336283;19;112194;-78
2022/01/10 03:37:58;;;;;;;28.87;13.23;;;1.10;99.90;;;;;;7333495;19;111388;-78
2022/01/10 03:40:25;;;;;;;33.13;12.60;;;1.10;99.90;;;;;;7336431;19;112595;-78
2022/01/10 03:42:52;;;;;;;30.30;12.30;;;1.10;99.90;;;;;;7337771;19;111912;-77
2022/01/10 03:45:19;;;;;;;36.43;12.67;;;1.10;99.90;;;;;;7334450;19;112191;-77
2022/01/10 03:47:46;;;;;;;38.20;13.10;;;1.10;99.90;;;;;;7337225;19;112034;-77
2022/01/10 03:50:13;;;;;;;27.80;12.70;;;1.20;99.90;;;;;;7336117;19;112161;-78
2022/01/10 03:52:42;;;;;;;30.50;12.73;;;1.20;99.90;;;;;;7349309;19;112334;-78
2022/01/10 03:55:10;;;;;;;27.57;11.97;;;1.30;99.90;;;;;;7340927;19;112330;-77
2022/01/10 03:57:36;;;;;;;33.57;13.20;;;1.30;99.90;;;;;;7343442;19;111154;-77
2022/01/10 04:00:08;;;;;;;28.47;12.43;;;1.30;99.90;;;;;;7342001;19;112630;-77
2022/01/10 04:02:37;;;;;;;35.80;13.63;;;1.40;99.90;;;;;;7341437;19;112405;-78
2022/01/10 04:05:05;;;;;;;38.73;12.57;;;1.40;99.90;;;;;;7342493;19;112590;-77
2022/01/10 04:07:32;;;;;;;29.07;12.37;;;1.40;99.90;;;;;;7340684;19;112193;-77
2022/01/10 04:09:59;;;;;;;36.97;12.57;;;1.40;99.90;;;;;;7343054;19;113113;-78
2022/01/10 04:12:26;;;;;;;31.93;13.10;;;1.50;99.90;;;;;;7340808;19;112757;-78
2022/01/10 04:14:53;;;;;;;29.50;12.27;;;1.50;99.90;;;;;;7346403;19;112920;-78
2022/01/10 04:17:20;;;;;;;35.37;14.60;;;1.60;99.90;;;;;;7341363;19;112621;-77
2022/01/10 04:19:47;;;;;;;32.53;13.47;;;1.60;99.90;;;;;;7340473;19;112050;-77
2022/01/10 04:22:14;;;;;;;30.00;12.80;;;1.60;99.90;;;;;;7341974;19;112272;-77
2022/01/10 04:24:41;;;;;;;31.77;13.97;;;1.60;99.90;;;;;;7339782;19;112756;-77
2022/01/10 04:27:08;;;;;;;35.53;13.93;;;1.70;99.90;;;;;;7344953;19;112329;-77
2022/01/10 04:29:34;;;;;;;41.00;13.70;;;1.70;99.90;;;;;;7340688;19;112959;-77
2022/01/10 04:32:03;;;;;;;35.00;13.30;;;1.70;99.90;;;;;;7342305;19;112675;-77
2022/01/10 04:34:30;;;;;;;39.33;15.40;;;1.80;99.90;;;;;;7338244;19;111599;-77
2022/01/10 04:36:57;;;;;;;29.33;13.53;;;1.80;99.90;;;;;;7346505;19;109856;-77
2022/01/10 04:39:24;;;;;;;34.33;14.20;;;1.80;99.90;;;;;;7340131;19;112293;-78
2022/01/10 04:41:51;;;;;;;;;;;1.90;99.90;;;;;;7341407;19;110861;-77
2022/01/10 04:44:18;;;;;;;37.93;14.00;;;1.90;99.90;;;;;;7344814;19;110908;-77
2022/01/10 04:46:45;;;;;;;34.03;14.20;;;1.90;99.90;;;;;;7340542;19;112039;-77
2022/01/10 04:49:21;;;;;;;47.33;17.60;;;1.90;99.90;;;;;;7340954;19;113437;-78
2022/01/10 04:51:49;;;;;;;60.33;18.33;;;1.90;99.90;;;;;;7338706;19;112678;-78
2022/01/10 04:54:17;;;;;;;42.33;15.90;;;1.90;99.90;;;;;;7342908;19;110733;-77
2022/01/10 04:56:44;;;;;;;33.93;14.57;;;1.90;99.90;;;;;;7344397;19;113943;-77
2022/01/10 04:59:12;;;;;;;33.90;14.97;;;2.00;99.90;;;;;;7342768;19;112089;-78
2022/01/10 05:01:39;;;;;;;41.57;16.00;;;2.10;99.90;;;;;;7340247;19;112243;-77
2022/01/10 05:04:07;;;;;;;40.23;14.00;;;2.10;99.90;;;;;;7341096;19;112460;-77
2022/01/10 05:06:35;;;;;;;35.30;14.83;;;2.20;99.90;;;;;;7338805;19;111765;-77
2022/01/10 05:09:02;;;;;;;40.30;15.80;;;2.20;99.90;;;;;;7339957;19;110616;-78
2022/01/10 05:11:29;;;;;;;53.17;19.10;;;2.20;99.90;;;;;;7339062;19;111093;-77
2022/01/10 05:13:56;;;;;;;52.00;18.20;;;2.20;99.90;;;;;;7336465;19;112043;-78
2022/01/10 05:16:23;;;;;;;38.87;15.93;;;2.10;99.90;;;;;;7342542;19;113213;-77
2022/01/10 05:18:50;;;;;;;35.20;15.73;;;2.10;99.90;;;;;;7344200;19;112822;-76
2022/01/10 05:21:17;;;;;;;42.07;15.83;;;2.10;99.90;;;;;;7340901;19;115625;-77
2022/01/10 05:23:44;;;;;;;48.03;18.43;;;2.20;99.90;;;;;;7339269;19;112379;-77
2022/01/10 05:26:11;;;;;;;40.50;16.87;;;2.30;99.90;;;;;;7339362;19;113217;-78
2022/01/10 05:28:38;;;;;;;55.67;19.23;;;2.30;99.90;;;;;;7337689;19;111895;-78
2022/01/10 05:31:05;;;;;;;35.57;16.93;;;2.30;99.90;;;;;;7337068;19;112346;-77
2022/01/10 05:33:32;;;;;;;43.23;18.43;;;2.20;99.90;;;;;;7341522;19;111724;-77
2022/01/10 05:35:59;;;;;;;54.07;19.70;;;2.30;99.90;;;;;;7335660;19;114783;-77
2022/01/10 05:38:26;;;;;;;39.23;15.83;;;2.30;99.90;;;;;;7339163;19;111096;-77
2022/01/10 05:40:53;;;;;;;40.70;16.53;;;2.30;99.90;;;;;;7343648;19;111917;-78
2022/01/10 05:43:20;;;;;;;41.80;15.73;;;2.40;99.90;;;;;;7340411;19;112704;-78
2022/01/10 05:45:48;;;;;;;46.83;18.13;;;2.40;99.90;;;;;;7338332;19;112295;-78
2022/01/10 05:48:21;;;;;;;37.03;15.80;;;2.50;99.90;;;;;;7337403;19;115215;-77
2022/01/10 05:50:49;;;;;;;35.43;15.37;;;2.50;99.90;;;;;;7338128;19;112601;-78
2022/01/10 05:53:16;;;;;;;40.40;15.03;;;2.50;99.90;;;;;;7337030;19;112170;-78
2022/01/10 05:55:43;;;;;;;40.77;16.13;;;2.50;99.90;;;;;;7340031;19;112118;-78
2022/01/10 05:58:11;;;;;;;43.10;15.70;;;2.60;99.90;;;;;;7337712;19;112618;-77
2022/01/10 06:00:38;;;;;;;41.03;16.23;;;2.70;99.90;;;;;;7342012;19;113070;-78
2022/01/10 06:03:05;;;;;;;45.73;17.60;;;2.60;99.90;;;;;;7342364;19;111963;-77
2022/01/10 06:05:38;;;;;;;34.30;16.33;;;2.70;99.90;;;;;;7338886;19;112794;-78
2022/01/10 06:08:07;;;;;;;33.70;15.97;;;2.70;99.90;;;;;;7330785;19;112429;-79
2022/01/10 06:10:34;;;;;;;37.07;15.87;;;2.70;99.90;;;;;;7337514;19;112446;-78
2022/01/10 06:13:01;;;;;;;37.33;15.17;;;2.70;99.90;;;;;;7333747;19;114551;-78
2022/01/10 06:15:28;;;;;;;33.43;16.00;;;2.80;99.90;;;;;;7335407;19;112724;-79
2022/01/10 06:17:56;;;;;;;40.57;16.43;;;2.70;99.90;;;;;;7336191;19;114632;-78
2022/01/10 06:20:23;;;;;;;38.43;16.00;;;2.80;99.90;;;;;;7337464;19;112804;-78
2022/01/10 06:22:50;;;;;;;36.40;15.63;;;2.70;99.90;;;;;;7340134;19;112073;-78
2022/01/10 06:25:21;;;;;;;49.97;17.33;;;2.70;99.90;;;;;;7340220;19;113208;-78
2022/01/10 06:27:48;;;;;;;48.07;18.43;;;2.70;99.90;;;;;;7338414;19;115428;-78
2022/01/10 06:30:15;;;;;;;45.33;19.07;;;2.60;99.90;;;;;;7335622;19;112577;-78
2022/01/10 06:32:42;;;;;;;45.90;18.60;;;2.60;99.90;;;;;;7334613;19;111869;-78
2022/01/10 06:35:10;;;;;;;40.90;18.07;;;2.50;99.90;;;;;;7337024;19;112852;-78
2022/01/10 06:37:37;;;;;;;37.20;17.93;;;2.50;99.90;;;;;;7336825;19;112722;-79
2022/01/10 06:40:05;;;;;;;44.30;19.17;;;2.40;99.90;;;;;;7338774;19;112682;-78
2022/01/10 06:42:32;;;;;;;33.80;16.97;;;2.50;99.90;;;;;;7333568;19;111998;-78
2022/01/10 06:45:00;;;;;;;36.53;17.50;;;2.50;99.90;;;;;;7344136;19;112234;-78
2022/01/10 06:47:27;;;;;;;50.23;19.90;;;2.50;99.90;;;;;;7336898;19;111903;-78
2022/01/10 06:49:54;;;;;;;57.83;20.33;;;2.50;99.90;;;;;;7336696;19;112439;-80
2022/01/10 06:52:21;;;;;;;61.33;22.10;;;2.40;99.90;;;;;;7335845;19;112096;-80
2022/01/10 06:54:48;;;;;;;47.27;19.53;;;2.50;99.90;;;;;;7334690;19;111721;-81
2022/01/10 06:57:15;;;;;;;58.80;22.20;;;2.50;99.90;;;;;;7339020;19;113003;-78
2022/01/10 06:59:42;;;;;;;44.67;19.43;;;2.50;99.90;;;;;;7334381;19;112224;-80
2022/01/10 07:02:10;;;;;;;40.07;19.07;;;2.50;99.90;;;;;;7338927;19;112133;-78
2022/01/10 07:04:37;;;;;;;43.33;19.17;;;2.50;99.90;;;;;;7335927;19;111301;-78
2022/01/10 07:07:05;;;;;;;37.73;18.40;;;2.50;99.90;;;;;;7343427;19;112249;-78
2022/01/10 07:09:33;;;;;;;40.43;19.50;;;2.50;99.90;;;;;;7337509;19;112746;-78
2022/01/10 07:12:01;;;;;;;49.00;19.83;;;2.50;99.90;;;;;;7334789;19;112411;-79
2022/01/10 07:14:29;;;;;;;34.57;17.87;;;2.60;99.90;;;;;;7338343;19;112095;-79
2022/01/10 07:17:01;;;;;;;33.17;17.10;;;2.50;99.90;;;;;;7333887;19;112699;-78
2022/01/10 07:19:28;;;;;;;43.20;18.40;;;2.60;99.90;;;;;;7337436;19;110507;-79
2022/01/10 07:21:55;;;;;;;41.77;18.13;;;2.60;99.90;;;;;;7336237;19;111920;-79
2022/01/10 07:24:22;;;;;;;41.17;18.93;;;2.60;99.90;;;;;;7338629;19;115447;-79
2022/01/10 07:26:50;;;;;;;39.23;18.00;;;2.70;99.90;;;;;;7342332;19;112060;-78
2022/01/10 07:29:17;;;;;;;35.83;17.60;;;2.60;99.90;;;;;;7349785;19;112487;-80
2022/01/10 07:31:44;;;;;;;37.43;18.37;;;2.70;99.90;;;;;;7344120;19;111717;-78
2022/01/10 07:34:14;;;;;;;34.83;17.70;;;2.70;99.90;;;;;;7343704;19;112823;-79
2022/01/10 07:36:42;;;;;;;40.13;18.10;;;2.70;99.90;;;;;;7344809;19;112790;-79
2022/01/10 07:39:10;;;;;;;36.27;16.77;;;2.70;99.90;;;;;;7341200;19;111784;-80
2022/01/10 07:41:42;;;;;;;44.80;18.33;;;2.70;99.90;;;;;;7343199;19;112321;-79
2022/01/10 07:44:09;;;;;;;40.17;17.33;;;2.70;99.90;;;;;;7342349;19;113356;-79
2022/01/10 07:46:36;;;;;;;34.60;17.27;;;2.70;99.90;;;;;;7341903;19;112166;-80
2022/01/10 07:49:03;;;;;;;39.17;18.10;;;2.70;99.90;;;;;;7342053;19;112812;-79
2022/01/10 07:51:30;;;;;;;43.77;18.00;;;2.70;99.90;;;;;;7346623;19;113472;-80
2022/01/10 07:53:59;;;;;;;56.30;18.80;;;2.70;99.90;;;;;;7342982;19;112121;-79
2022/01/10 07:56:26;;;;;;;63.23;18.37;;;2.70;99.90;;;;;;7340187;19;112916;-79
2022/01/10 07:58:53;;;;;;;51.67;19.47;;;2.60;99.90;;;;;;7343613;19;112800;-79
2022/01/10 08:01:20;;;;;;;43.67;19.17;;;2.60;99.90;;;;;;7340607;19;112105;-79
2022/01/10 08:03:50;;;;;;;44.00;19.07;;;2.60;99.90;;;;;;7343332;19;112806;-80
2022/01/10 08:06:18;;;;;;;48.33;18.90;;;2.70;99.90;;;;;;7342387;19;112389;-78
2022/01/10 08:08:45;;;;;;;67.87;19.43;;;2.60;99.90;;;;;;7343468;19;111981;-80
2022/01/10 08:11:13;;;;;;;128.17;20.33;;;2.60;99.90;;;;;;7342500;19;112528;-80
2022/01/10 08:13:41;;;;;;;157.97;21.03;;;2.60;99.90;;;;;;7345649;19;113305;-78
2022/01/10 08:16:08;;;;;;;128.77;20.23;;;2.50;99.90;;;;;;7345180;19;116085;-78
2022/01/10 08:18:35;;;;;;;69.37;18.77;;;2.40;99.90;;;;;;7341828;19;112096;-80
2022/01/10 08:21:06;;;;;;;62.53;18.00;;;2.40;99.90;;;;;;7342772;19;112983;-79
2022/01/10 08:23:33;;;;;;;138.83;19.40;;;2.50;99.90;;;;;;7340529;19;111178;-79
2022/01/10 08:26:00;;;;;;;88.23;18.53;;;2.50;99.90;;;;;;7344134;19;115092;-79
2022/01/10 08:28:27;;;;;;;108.10;18.77;;;2.50;99.90;;;;;;7340781;19;112017;-79
2022/01/10 08:30:54;;;;;;;122.10;18.93;;;2.50;99.90;;;;;;7339913;19;111149;-80
2022/01/10 08:33:21;;;;;;;89.17;19.60;;;2.50;99.90;;;;;;7341240;19;111696;-80
2022/01/10 08:35:48;;;;;;;126.80;18.77;;;2.40;99.90;;;;;;7346542;19;112312;-81
2022/01/10 08:38:15;;;;;;;37.33;17.07;;;2.40;99.90;;;;;;7343278;19;111755;-80
2022/01/10 08:40:43;;;;;;;52.03;15.90;;;2.50;99.90;;;;;;7339700;19;111611;-80
2022/01/10 08:43:10;;;;;;;41.00;16.03;;;2.60;99.90;;;;;;7344211;19;111102;-80
2022/01/10 08:45:40;;;;;;;47.57;16.60;;;2.60;99.90;;;;;;7340708;19;113727;-80
2022/01/10 08:48:08;;;;;;;85.13;17.13;;;2.70;99.90;;;;;;7343658;19;114252;-78
2022/01/10 08:50:35;;;;;;;73.20;16.70;;;2.70;99.90;;;;;;7339197;19;112452;-80
2022/01/10 08:53:08;;;;;;;48.63;16.20;;;2.70;99.90;;;;;;7340785;19;111955;-79
2022/01/10 08:55:35;;;;;;;54.07;14.93;;;2.70;99.90;;;;;;7344569;19;112118;-79
2022/01/10 08:58:02;;;;;;;41.73;14.87;;;2.70;99.90;;;;;;7340495;19;112679;-80
2022/01/10 09:00:30;;;;;;;42.80;14.17;;;2.60;99.90;;;;;;7344045;19;111936;-80
2022/01/10 09:02:57;;;;;;;48.73;15.90;;;2.60;99.90;;;;;;7340155;19;112753;-79
2022/01/10 09:05:24;;;;;;;67.60;15.93;;;2.60;99.90;;;;;;7341701;19;111691;-78
2022/01/10 09:07:51;;;;;;;;;;;2.60;99.90;;;;;;7339574;19;112322;-79
2022/01/10 09:10:19;;;;;;;48.57;13.87;;;2.60;99.90;;;;;;7339409;19;112779;-81
2022/01/10 09:12:46;;;;;;;63.00;13.73;;;2.70;99.90;;;;;;7338455;19;111179;-81
2022/01/10 09:15:14;;;;;;;33.50;14.47;;;2.70;99.90;;;;;;7341760;19;112320;-80
2022/01/10 09:17:42;;;;;;;70.80;14.00;;;2.80;99.90;;;;;;7347606;19;112544;-79
2022/01/10 09:20:09;;;;;;;47.13;14.30;;;2.80;99.90;;;;;;7338235;19;112255;-80
2022/01/10 09:22:36;;;;;;;43.90;14.57;;;2.80;99.90;;;;;;7342485;19;112572;-80
2022/01/10 09:25:05;;;;;;;79.80;15.23;;;2.70;99.90;;;;;;7339618;19;112277;-80
2022/01/10 09:27:32;;;;;;;43.23;14.60;;;2.60;99.90;;;;;;7342168;19;112222;-80
2022/01/10 09:29:59;;;;;;;62.83;15.13;;;2.70;99.90;;;;;;7336370;19;112792;-79
2022/01/10 09:32:26;;;;;;;77.47;16.33;;;2.70;99.90;;;;;;7339991;19;111996;-79
2022/01/10 09:34:53;;;;;;;45.50;15.40;;;2.70;99.90;;;;;;7337591;19;112005;-79
2022/01/10 09:37:20;;;;;;;35.10;13.97;;;2.80;99.90;;;;;;7340079;19;112450;-80
2022/01/10 09:39:47;;;;;;;36.93;14.37;;;2.80;99.90;;;;;;7343836;19;112213;-81
2022/01/10 09:42:15;;;;;;;31.17;13.53;;;2.80;99.90;;;;;;7340835;19;112869;-81
2022/01/10 09:44:42;;;;;;;30.60;13.80;;;2.80;99.90;;;;;;7340658;19;111869;-81
2022/01/10 09:47:09;;;;;;;36.43;14.17;;;2.90;99.90;;;;;;7337520;19;112480;-79
2022/01/10 09:49:36;;;;;;;34.53;15.07;;;3.00;99.90;;;;;;7340491;19;112442;-79
2022/01/10 09:52:05;;;;;;;44.67;14.47;;;3.00;99.90;;;;;;7338854;19;112188;-80
2022/01/10 09:54:32;;;;;;;32.70;15.07;;;3.10;99.90;;;;;;7342066;19;112217;-80
2022/01/10 09:56:59;;;;;;;34.00;15.30;;;3.10;99.90;;;;;;7337501;19;112424;-81
2022/01/10 09:59:26;;;;;;;49.80;15.67;;;3.20;99.90;;;;;;7341072;19;110255;-81
2022/01/10 10:01:53;;;;;;;40.27;15.97;;;3.20;99.90;;;;;;7343978;19;114460;-79
2022/01/10 10:04:21;;;;;;;40.87;14.73;;;3.20;99.90;;;;;;7338579;19;112570;-80
2022/01/10 10:06:48;;;;;;;43.20;15.27;;;3.30;99.90;;;;;;7340554;19;112142;-78
2022/01/10 10:09:16;;;;;;;40.73;15.87;;;3.30;99.90;;;;;;7337112;19;112713;-79
2022/01/10 10:11:50;;;;;;;35.70;14.50;;;3.30;99.90;;;;;;7337221;19;112093;-80
2022/01/10 10:14:21;;;;;;;40.33;15.93;;;3.20;99.90;;;;;;7338013;19;111780;-78
2022/01/10 10:16:53;;;;;;;31.13;14.83;;;3.30;99.90;;;;;;7338580;19;112846;-79
2022/01/10 10:19:23;;;;;;;29.50;13.57;;;3.40;99.90;;;;;;7340821;19;112513;-80
2022/01/10 10:21:52;;;;;;;32.73;14.43;;;3.40;99.90;;;;;;7337694;19;113299;-80
2022/01/10 10:24:20;;;;;;;33.73;14.70;;;3.50;99.90;;;;;;7345065;19;112303;-79
2022/01/10 10:26:48;;;;;;;34.93;15.60;;;3.50;99.90;;;;;;7334831;19;113055;-80
2022/01/10 10:29:18;;;;;;;44.37;16.13;;;3.60;99.90;;;;;;7337836;19;111009;-80
2022/01/10 10:31:50;;;;;;;31.00;14.07;;;3.70;99.90;;;;;;7337198;19;112007;-81
2022/01/10 10:34:22;;;;;;;29.77;14.90;;;3.70;99.90;;;;;;7337896;19;112087;-80
2022/01/10 10:37:07;;;;;;;36.00;15.33;;;3.70;99.90;;;;;;7339246;19;112689;-79
2022/01/10 10:39:36;;;;;;;48.43;14.90;;;3.90;99.90;;;;;;7335379;19;112398;-80
2022/01/10 10:42:10;;;;;;;30.03;13.83;;;4.00;99.90;;;;;;7338326;19;112014;-79
2022/01/10 10:44:38;;;;;;;26.60;13.17;;;4.10;99.90;;;;;;7339966;19;111033;-80
2022/01/10 10:47:05;;;;;;;26.23;13.23;;;4.10;99.90;;;;;;7341261;19;114603;-79
2022/01/10 10:49:38;;;;;;;33.97;13.57;;;4.10;99.90;;;;;;7338361;19;112356;-80
2022/01/10 10:52:08;;;;;;;34.47;13.90;;;4.20;99.90;;;;;;7337076;19;112426;-80
2022/01/10 10:54:36;;;;;;;39.23;13.53;;;4.10;99.90;;;;;;7338281;19;112083;-79
2022/01/10 10:57:05;;;;;;;94.40;15.07;;;4.00;99.90;;;;;;7336841;19;112687;-79
2022/01/10 10:59:35;;;;;;;59.10;14.00;;;3.90;99.90;;;;;;7341533;19;112050;-78
2022/01/10 11:02:03;;;;;;;25.60;12.93;;;3.90;99.90;;;;;;7346841;19;111999;-79
2022/01/10 11:04:34;;;;;;;92.37;13.73;;;3.90;99.90;;;;;;7342301;19;112711;-79
2022/01/10 11:07:02;;;;;;;99.40;14.63;;;4.00;99.90;;;;;;7351319;19;112001;-79
2022/01/10 11:09:30;;;;;;;92.23;14.83;;;3.90;99.90;;;;;;7339535;19;112338;-80
2022/01/10 11:11:57;;;;;;;42.70;14.30;;;3.80;99.90;;;;;;7343767;19;115093;-79
2022/01/10 11:14:25;;;;;;;99.07;14.03;;;3.80;99.90;;;;;;7341682;19;112358;-79
2022/01/10 11:16:54;;;;;;;56.20;13.63;;;3.80;99.90;;;;;;7343073;19;112317;-78
2022/01/10 11:19:25;;;;;;;79.47;14.37;;;3.80;99.90;;;;;;7344247;19;111787;-79
2022/01/10 11:22:06;;;;;;;208.20;15.03;;;3.80;99.90;;;;;;7342939;19;112114;-80
2022/01/10 11:24:48;;;;;;;40.53;12.43;;;3.80;99.90;;;;;;7345676;19;112683;-80
2022/01/10 11:27:33;;;;;;;77.67;14.07;;;3.80;99.90;;;;;;7343959;19;111738;-80
2022/01/10 11:30:26;;;;;;;124.47;15.23;;;3.80;99.90;;;;;;7348029;19;112484;-79
2022/01/10 11:32:57;;;;;;;38.07;14.00;;;3.90;99.90;;;;;;7343729;19;112174;-80
2022/01/10 11:36:01;;;;;;;103.20;15.33;;;3.80;99.90;;;;;;7341543;19;112408;-79
2022/01/10 11:38:36;;;;;;;172.10;15.73;;;3.90;99.90;;;;;;7341818;19;112458;-80
2022/01/10 11:41:09;;;;;;;46.53;14.20;;;3.90;99.90;;;;;;7345092;19;111979;-80
2022/01/10 11:43:37;;;;;;;120.20;14.90;;;4.00;99.90;;;;;;7340994;19;112270;-79
2022/01/10 11:46:26;;;;;;;35.65;14.82;;;3.90;99.90;;;;;;7345165;19;113160;-81
2022/01/10 11:48:58;;;;;;;79.07;15.77;;;3.80;99.90;;;;;;7341306;19;111920;-79
2022/01/10 11:51:38;;;;;;;28.53;14.00;;;3.90;99.90;;;;;;7342988;19;112409;-79
2022/01/10 11:54:12;;;;;;;25.57;13.87;;;3.90;99.90;;;;;;7348226;19;111085;-81
2022/01/10 11:56:45;;;;;;;25.20;13.03;;;4.00;99.90;;;;;;7342591;19;112187;-79
2022/01/10 11:59:29;;;;;;;25.57;14.23;;;4.10;99.90;;;;;;7342145;19;113869;-79
2022/01/10 12:02:10;;;;;;;67.87;14.87;;;4.20;99.90;;;;;;7345204;19;112148;-79
2022/01/10 12:04:45;;;;;;;122.60;14.80;;;4.20;99.90;;;;;;7340606;19;112375;-79
2022/01/10 12:07:15;;;;;;;50.13;14.80;;;4.20;99.90;;;;;;7343386;19;111093;-81
2022/01/10 12:09:45;;;;;;;78.23;15.37;;;4.10;99.90;;;;;;7341273;19;111748;-79
2022/01/10 12:12:14;;;;;;;152.53;15.30;;;4.10;99.90;;;;;;7339854;19;112449;-80
2022/01/10 12:14:43;;;;;;;94.70;15.93;;;4.00;99.90;;;;;;7345108;19;113408;-79
2022/01/10 12:17:12;;;;;;;101.27;16.17;;;4.00;99.90;;;;;;7346816;19;112032;-80
2022/01/10 12:19:39;;;;;;;47.43;15.57;;;3.90;99.90;;;;;;7343165;19;112917;-80
2022/01/10 12:22:07;;;;;;;36.67;14.53;;;3.90;99.90;;;;;;7338603;19;112091;-78
2022/01/10 12:24:36;;;;;;;135.43;15.63;;;4.00;99.90;;;;;;7343604;19;112532;-80
2022/01/10 12:27:05;;;;;;;157.23;16.67;;;4.00;99.90;;;;;;7341107;19;112436;-81
2022/01/10 12:29:32;;;;;;;56.43;14.73;;;4.00;99.90;;;;;;7342329;19;111824;-80
2022/01/10 12:32:00;;;;;;;54.80;14.67;;;4.00;99.90;;;;;;7342150;19;113449;-80
2022/01/10 12:34:28;;;;;;;25.67;14.23;;;4.00;99.90;;;;;;7341147;19;113724;-79
2022/01/10 12:36:55;;;;;;;27.63;14.97;;;4.00;99.90;;;;;;7343874;19;111779;-79
2022/01/10 12:39:27;;;;;;;;;;;4.10;99.90;;;;;;7346781;19;112343;-78
2022/01/10 12:41:59;;;;;;;32.10;13.60;;;4.20;99.90;;;;;;7347641;19;112220;-81
2022/01/10 12:44:27;;;;;;;67.30;15.13;;;4.20;99.90;;;;;;7344147;19;109853;-79
2022/01/10 12:46:55;;;;;;;36.30;14.43;;;4.20;99.90;;;;;;7339664;19;112649;-78
2022/01/10 12:49:22;;;;;;;27.47;14.60;;;4.20;99.90;;;;;;7342790;19;112075;-79